createdAt,value
2023-03-23T16:00:55.849Z,17.12
2023-03-23T16:06:03.428Z,17.53
2023-03-23T16:11:08.105Z,17.04
2023-03-23T16:16:17.583Z,17.30
2023-03-23T16:21:23.655Z,16.89
2023-03-23T16:26:27.860Z,17.37
2023-03-23T16:31:32.047Z,17.59
2023-03-23T16:36:37.798Z,17.15
2023-03-23T16:41:42.374Z,16.54
2023-03-23T16:46:46.519Z,16.94
2023-03-23T16:51:52.062Z,17.03
2023-03-23T16:56:55.930Z,17.29
2023-03-23T17:02:03.755Z,16.75
2023-03-23T17:07:09.605Z,16.97
2023-03-23T17:12:13.432Z,17.30
2023-03-23T17:17:17.605Z,17.55
2023-03-23T17:22:23.347Z,17.76
2023-03-23T17:27:27.640Z,17.41
2023-03-23T17:32:32.111Z,17.19
2023-03-23T17:37:39.554Z,16.99
2023-03-23T17:42:44.243Z,17.35
2023-03-23T17:47:48.569Z,17.30
2023-03-23T17:52:57.128Z,17.01
2023-03-23T17:58:01.662Z,17.47
2023-03-23T18:03:06.104Z,17.32
2023-03-23T18:08:12.318Z,17.66
2023-03-23T18:13:16.745Z,17.63
2023-03-23T18:18:21.037Z,16.97
2023-03-23T18:23:27.575Z,16.75
2023-03-23T18:28:31.945Z,17.73
2023-03-23T18:33:37.706Z,17.85
2023-03-23T18:38:43.252Z,17.96
2023-03-23T18:43:47.333Z,17.58
2023-03-23T18:48:51.804Z,17.16
2023-03-23T18:53:57.407Z,16.92
2023-03-23T18:59:01.244Z,17.33
2023-03-23T19:04:06.363Z,16.69
2023-03-23T19:09:12.974Z,16.25
2023-03-23T19:14:17.771Z,16.38
2023-03-23T19:19:22.037Z,16.35
2023-03-23T19:24:30.358Z,16.33
2023-03-23T19:29:36.904Z,15.92
2023-03-23T19:34:41.150Z,15.21
2023-03-23T19:39:46.636Z,15.63
2023-03-23T19:44:50.850Z,15.92
2023-03-23T19:49:56.673Z,15.93
2023-03-23T19:55:02.421Z,15.66
2023-03-23T20:00:08.186Z,15.36
2023-03-23T20:05:12.665Z,15.84
2023-03-23T20:10:18.423Z,15.80
2023-03-23T20:15:22.728Z,15.95
2023-03-23T20:20:28.096Z,15.61
2023-03-23T20:25:33.667Z,15.66
2023-03-23T20:30:39.020Z,15.42
2023-03-23T20:35:43.699Z,15.37
2023-03-23T20:40:49.660Z,16.00
2023-03-23T20:45:53.770Z,15.35
2023-03-23T20:50:58.574Z,15.53
2023-03-23T20:56:07.017Z,15.75
2023-03-23T21:01:12.388Z,15.78
2023-03-23T21:06:16.772Z,14.91
2023-03-23T21:11:24.184Z,15.25
2023-03-23T21:16:28.956Z,15.54
2023-03-23T21:21:34.276Z,14.82
2023-03-23T21:26:41.140Z,15.30
2023-03-23T21:31:46.166Z,15.59
2023-03-23T21:36:51.452Z,15.24
2023-03-23T21:41:59.572Z,15.24
2023-03-23T21:47:04.015Z,15.18
2023-03-23T21:52:08.110Z,15.12
2023-03-23T21:57:13.792Z,15.48
2023-03-23T22:02:18.150Z,15.76
2023-03-23T22:07:24.141Z,15.02
2023-03-23T22:12:29.878Z,15.48
2023-03-23T22:17:34.124Z,15.05
2023-03-23T22:22:38.415Z,15.53
2023-03-23T22:27:44.790Z,15.14
2023-03-23T22:32:49.300Z,15.04
2023-03-23T22:37:53.910Z,15.11
2023-03-23T22:42:59.781Z,15.18
2023-03-23T22:48:05.964Z,15.26
2023-03-23T22:53:10.334Z,15.49
2023-03-23T22:58:19.031Z,15.36
2023-03-23T23:03:23.451Z,15.29
2023-03-23T23:08:30.192Z,15.36
2023-03-23T23:13:35.965Z,15.88
2023-03-23T23:18:40.692Z,15.27
2023-03-23T23:23:46.515Z,15.44
2023-03-23T23:28:52.972Z,15.14
2023-03-23T23:33:59.545Z,15.31
2023-03-23T23:39:05.916Z,14.98
2023-03-23T23:44:11.666Z,15.17
2023-03-23T23:49:15.973Z,15.11
2023-03-23T23:54:22.849Z,14.81
2023-03-23T23:59:29.126Z,15.29
